createdAt,value
2023-05-10T00:00:49.333Z,81.9492
2023-05-10T00:01:57.432Z,81.9625
2023-05-10T00:03:05.643Z,81.9197
2023-05-10T00:04:13.621Z,81.9331
2023-05-10T00:05:21.501Z,82.0055
2023-05-10T00:06:29.470Z,82.0691
2023-05-10T00:07:37.523Z,82.0571
2023-05-10T00:08:45.712Z,82.0591
2023-05-10T00:09:53.856Z,82.0518
2023-05-10T00:11:01.860Z,82.0708
2023-05-10T00:12:09.922Z,82.1398
2023-05-10T00:13:18.048Z,82.1591
2023-05-10T00:14:26.085Z,82.1888
2023-05-10T00:15:34.048Z,82.2482
2023-05-10T00:16:42.149Z,82.2452
2023-05-10T00:17:50.178Z,82.2029
2023-05-10T00:18:58.237Z,82.2043
2023-05-10T00:20:06.198Z,82.2195
2023-05-10T00:21:14.196Z,82.2508
2023-05-10T00:22:22.253Z,82.2833
2023-05-10T00:23:30.468Z,82.2785
2023-05-10T00:24:38.474Z,82.2895
2023-05-10T00:25:46.794Z,82.3306
2023-05-10T00:26:54.944Z,82.3397
2023-05-10T00:28:02.663Z,82.3131
2023-05-10T00:29:10.702Z,82.2910
2023-05-10T00:30:19.041Z,82.3634
2023-05-10T00:31:26.863Z,82.3465
2023-05-10T00:32:34.918Z,82.3233
2023-05-10T00:33:42.922Z,82.2532
2023-05-10T00:34:50.875Z,82.2222
2023-05-10T00:35:58.896Z,82.2450
2023-05-10T00:37:06.996Z,82.3073
2023-05-10T00:38:15.227Z,82.3524
2023-05-10T00:39:23.292Z,82.3689
2023-05-10T00:40:31.341Z,82.4132
2023-05-10T00:41:39.436Z,82.4735
2023-05-10T00:42:47.589Z,82.4794
2023-05-10T00:43:55.486Z,82.3935
2023-05-10T00:45:03.529Z,82.3394
2023-05-10T00:46:11.751Z,82.3266
2023-05-10T00:47:19.644Z,82.3219
2023-05-10T00:48:27.783Z,82.3314
2023-05-10T00:49:35.620Z,82.2791
2023-05-10T00:50:43.690Z,82.2316
2023-05-10T00:51:51.721Z,82.2042
2023-05-10T00:52:59.976Z,82.1922
2023-05-10T00:54:08.023Z,82.1595
2023-05-10T00:55:16.035Z,82.1244
2023-05-10T00:56:24.086Z,82.2081
2023-05-10T00:57:32.166Z,82.1242
2023-05-10T00:58:40.319Z,82.0902
2023-05-10T00:59:48.299Z,82.0114
2023-05-10T01:00:56.426Z,82.0213
2023-05-10T01:02:04.479Z,82.0056
2023-05-10T01:03:12.582Z,81.9515
2023-05-10T01:04:20.396Z,81.9636
2023-05-10T01:05:28.478Z,81.9815
2023-05-10T01:06:36.476Z,82.0426
2023-05-10T01:07:44.708Z,82.0176
2023-05-10T01:08:52.724Z,82.0145
2023-05-10T01:10:00.800Z,82.0131
2023-05-10T01:11:08.861Z,81.9309
2023-05-10T01:12:16.979Z,81.9295
2023-05-10T01:13:25.008Z,81.9990
2023-05-10T01:14:33.144Z,82.0249
2023-05-10T01:15:41.147Z,82.0324
2023-05-10T01:16:49.106Z,82.0254
2023-05-10T01:17:57.209Z,82.0077
2023-05-10T01:19:05.089Z,81.9979
2023-05-10T01:20:13.190Z,82.0226
2023-05-10T01:21:21.259Z,82.0364
2023-05-10T01:22:29.407Z,82.0133
2023-05-10T01:23:37.456Z,82.0745
2023-05-10T01:24:45.502Z,82.0910
2023-05-10T01:25:53.573Z,82.0991
2023-05-10T01:27:01.654Z,82.1138
2023-05-10T01:28:09.672Z,82.1323
2023-05-10T01:29:17.758Z,82.0916
2023-05-10T01:30:25.909Z,82.0582
2023-05-10T01:31:33.959Z,82.1356
2023-05-10T01:32:42.136Z,82.1332
2023-05-10T01:33:49.834Z,82.0816
2023-05-10T01:34:57.887Z,82.1225
2023-05-10T01:36:05.940Z,82.1552
2023-05-10T01:37:14.134Z,82.0869
2023-05-10T01:38:22.207Z,82.0675
2023-05-10T01:39:30.236Z,82.0322
2023-05-10T01:40:38.289Z,81.9625
2023-05-10T01:41:46.384Z,81.9279
2023-05-10T01:42:54.402Z,81.9331
2023-05-10T01:44:02.435Z,81.8907
2023-05-10T01:45:10.496Z,81.8961
2023-05-10T01:46:18.673Z,81.9529
2023-05-10T01:47:26.707Z,81.9255
2023-05-10T01:48:34.540Z,81.9832
2023-05-10T01:49:42.574Z,82.0363
2023-05-10T01:50:50.665Z,82.0245
2023-05-10T01:51:58.901Z,82.0087
2023-05-10T01:53:06.942Z,82.0214
2023-05-10T01:54:14.983Z,82.0159
2023-05-10T01:55:23.039Z,82.0300
2023-05-10T01:56:31.193Z,82.1074
2023-05-10T01:57:39.176Z,82.1352
2023-05-10T01:58:47.292Z,82.1600
2023-05-10T01:59:55.258Z,82.1915
2023-05-10T02:01:03.398Z,82.1468
2023-05-10T02:02:11.379Z,82.1194
2023-05-10T02:03:19.303Z,82.1478
2023-05-10T02:04:27.317Z,82.1636
2023-05-10T02:05:35.390Z,82.1140
2023-05-10T02:06:43.658Z,82.1043
2023-05-10T02:07:51.601Z,82.0872
2023-05-10T02:08:59.727Z,82.0868
2023-05-10T02:10:07.731Z,82.0924
2023-05-10T02:11:15.802Z,82.1030
2023-05-10T02:12:23.992Z,82.1186
2023-05-10T02:13:31.983Z,82.1115
2023-05-10T02:14:39.934Z,82.0344
2023-05-10T02:15:48.000Z,82.0094
2023-05-10T02:16:56.186Z,82.0230
2023-05-10T02:18:04.256Z,82.0963
2023-05-10T02:19:12.043Z,82.1181
2023-05-10T02:20:20.327Z,82.1254
2023-05-10T02:21:28.160Z,82.1669
2023-05-10T02:22:36.364Z,82.2358
2023-05-10T02:23:44.475Z,82.2814
2023-05-10T02:24:52.464Z,82.1999
2023-05-10T02:26:00.737Z,82.1532
2023-05-10T02:27:08.559Z,82.1592
2023-05-10T02:28:16.715Z,82.1618
2023-05-10T02:29:24.724Z,82.1653
2023-05-10T02:30:32.873Z,82.2155
2023-05-10T02:31:41.331Z,82.1820
2023-05-10T02:32:48.795Z,82.1625
2023-05-10T02:33:56.795Z,82.2071
2023-05-10T02:35:04.880Z,82.2023
2023-05-10T02:36:13.052Z,82.2455
2023-05-10T02:37:21.211Z,82.2881
2023-05-10T02:38:29.258Z,82.3112
2023-05-10T02:39:37.261Z,82.2552
2023-05-10T02:40:45.269Z,82.1732
2023-05-10T02:41:53.398Z,82.1445
2023-05-10T02:43:01.416Z,82.1645
2023-05-10T02:44:09.692Z,82.1453
2023-05-10T02:45:17.609Z,82.1430
2023-05-10T02:46:25.790Z,82.1600
2023-05-10T02:47:33.624Z,82.1876
2023-05-10T02:48:41.535Z,82.2025
2023-05-10T02:49:49.583Z,82.1443
2023-05-10T02:50:57.886Z,82.0919
2023-05-10T02:52:10.735Z,82.0862
2023-05-10T02:53:19.019Z,82.0395
2023-05-10T02:54:26.833Z,81.9826
2023-05-10T02:55:34.921Z,82.0360
2023-05-10T02:56:42.984Z,82.0572
2023-05-10T02:57:50.981Z,82.0797
2023-05-10T02:58:59.102Z,82.1410
2023-05-10T03:00:07.109Z,82.1348
2023-05-10T03:01:15.053Z,82.1681
2023-05-10T03:02:23.146Z,82.1984
2023-05-10T03:03:31.120Z,82.2310
2023-05-10T03:04:39.433Z,82.1993
2023-05-10T03:05:47.353Z,82.1179
2023-05-10T03:06:55.441Z,82.0735
2023-05-10T03:08:03.599Z,82.0578
2023-05-10T03:09:11.679Z,82.0644
2023-05-10T03:10:19.726Z,82.0988
2023-05-10T03:11:27.673Z,82.0836
2023-05-10T03:12:35.695Z,82.1620
2023-05-10T03:13:43.825Z,82.2393
2023-05-10T03:14:51.990Z,82.2616
2023-05-10T03:15:59.782Z,82.2825
2023-05-10T03:17:07.803Z,82.2622
2023-05-10T03:18:15.925Z,82.3060
2023-05-10T03:19:24.185Z,82.3147
2023-05-10T03:20:32.182Z,82.3358
2023-05-10T03:21:40.262Z,82.3322
2023-05-10T03:22:48.109Z,82.3208
2023-05-10T03:23:56.345Z,82.3369
2023-05-10T03:25:04.524Z,82.3155
2023-05-10T03:26:12.393Z,82.3271
2023-05-10T03:27:20.472Z,82.2508
2023-05-10T03:28:28.654Z,82.1467
2023-05-10T03:29:36.620Z,82.0955
2023-05-10T03:30:44.506Z,82.0483
2023-05-10T03:31:52.684Z,82.0312
2023-05-10T03:33:00.785Z,81.9923
2023-05-10T03:34:08.861Z,81.9515
2023-05-10T03:35:16.987Z,81.9662
2023-05-10T03:36:24.945Z,81.9750
2023-05-10T03:37:32.971Z,81.9636
2023-05-10T03:38:41.078Z,81.9922
2023-05-10T03:39:49.210Z,81.9586
2023-05-10T03:40:57.468Z,81.9541
2023-05-10T03:42:05.290Z,81.9517
2023-05-10T03:43:13.323Z,82.0081
2023-05-10T03:44:21.412Z,82.0273
2023-05-10T03:45:29.254Z,82.0548
2023-05-10T03:46:37.388Z,81.9877
2023-05-10T03:47:45.505Z,81.9765
2023-05-10T03:48:53.578Z,81.9794
2023-05-10T03:50:01.678Z,82.0074
2023-05-10T03:51:09.835Z,81.9920
2023-05-10T03:52:17.921Z,82.0181
2023-05-10T03:53:26.161Z,82.0443
2023-05-10T03:54:34.000Z,82.0799
2023-05-10T03:55:41.978Z,82.1190
2023-05-10T03:56:50.033Z,82.1264
2023-05-10T03:57:58.128Z,82.1703
2023-05-10T03:59:06.041Z,82.2459
2023-05-10T04:00:14.046Z,82.2555
2023-05-10T04:01:22.021Z,82.2458
2023-05-10T04:02:30.213Z,82.2119
2023-05-10T04:03:38.383Z,82.2564
2023-05-10T04:04:46.383Z,82.2549
2023-05-10T04:05:54.367Z,82.2247
2023-05-10T04:07:02.436Z,82.1334
2023-05-10T04:08:10.449Z,82.0797
2023-05-10T04:09:18.567Z,82.1528
2023-05-10T04:10:26.672Z,82.1603
2023-05-10T04:11:34.799Z,82.1099
2023-05-10T04:12:42.836Z,82.1273
2023-05-10T04:13:50.766Z,82.2142
2023-05-10T04:14:58.703Z,82.2853
2023-05-10T04:16:06.843Z,82.2685
2023-05-10T04:17:14.905Z,82.2384
2023-05-10T04:18:23.025Z,82.2630
2023-05-10T04:19:31.105Z,82.2582
2023-05-10T04:20:39.140Z,82.2008
2023-05-10T04:21:47.181Z,82.1827
2023-05-10T04:22:55.237Z,82.2140
2023-05-10T04:24:03.155Z,82.1983
2023-05-10T04:25:11.521Z,82.1890
2023-05-10T04:26:19.411Z,82.1494
2023-05-10T04:27:27.517Z,82.1355
2023-05-10T04:28:35.532Z,82.1775
2023-05-10T04:29:43.511Z,82.1538
2023-05-10T04:30:51.545Z,82.1526
2023-05-10T04:31:59.567Z,82.1239
2023-05-10T04:33:07.889Z,82.1500
2023-05-10T04:34:15.806Z,82.1522
2023-05-10T04:35:23.873Z,82.0985
2023-05-10T04:36:31.933Z,82.1080
2023-05-10T04:37:39.949Z,82.1511
2023-05-10T04:38:48.077Z,82.0413
2023-05-10T04:39:56.114Z,82.0363
2023-05-10T04:41:04.164Z,82.0236
2023-05-10T04:42:12.454Z,81.9130
2023-05-10T04:43:20.247Z,81.8541
2023-05-10T04:44:28.181Z,81.8381
2023-05-10T04:45:36.225Z,81.9310
2023-05-10T04:46:44.361Z,81.9599
2023-05-10T04:47:52.713Z,81.9102
2023-05-10T04:49:00.562Z,81.9212
2023-05-10T04:50:08.697Z,81.8479
2023-05-10T04:51:16.765Z,81.8019
2023-05-10T04:52:24.763Z,81.7958
2023-05-10T04:53:32.886Z,81.7674
2023-05-10T04:54:41.051Z,81.8100
2023-05-10T04:55:49.090Z,81.8352
2023-05-10T04:56:57.058Z,81.8140
2023-05-10T04:58:05.051Z,81.7723
2023-05-10T04:59:13.019Z,81.7707
2023-05-10T05:00:21.046Z,81.7885
2023-05-10T05:01:29.263Z,81.7135
2023-05-10T05:02:37.397Z,81.7388
2023-05-10T05:03:45.679Z,81.7998
2023-05-10T05:04:53.406Z,81.8645
2023-05-10T05:06:01.578Z,81.9272
2023-05-10T05:07:09.536Z,82.0047
2023-05-10T05:08:17.672Z,82.0744
2023-05-10T05:09:25.650Z,82.0955
2023-05-10T05:10:33.825Z,82.1230
2023-05-10T05:11:41.815Z,82.2019
2023-05-10T05:12:49.841Z,82.3120
2023-05-10T05:13:57.755Z,82.2211
2023-05-10T05:15:07.849Z,82.1406
2023-05-10T05:16:18.852Z,82.0269
2023-05-10T05:17:26.988Z,82.0140
2023-05-10T05:18:34.971Z,82.0795
2023-05-10T05:19:42.983Z,82.0885
2023-05-10T05:20:51.061Z,82.0799
2023-05-10T05:21:59.105Z,81.9364
2023-05-10T05:23:07.239Z,81.7719
2023-05-10T05:24:15.238Z,81.7167
2023-05-10T05:25:23.169Z,81.6631
2023-05-10T05:26:31.469Z,81.5356
2023-05-10T05:27:39.339Z,81.4622
2023-05-10T05:28:47.362Z,81.4959
2023-05-10T05:29:55.380Z,81.4421
2023-05-10T05:31:03.540Z,81.3809
2023-05-10T05:32:11.610Z,81.3936
2023-05-10T05:33:19.768Z,81.3249
2023-05-10T05:34:27.747Z,81.3138
2023-05-10T05:35:35.814Z,81.2643
2023-05-10T05:36:43.831Z,81.2835
2023-05-10T05:37:52.088Z,81.3479
2023-05-10T05:39:00.041Z,81.3443
2023-05-10T05:40:07.998Z,81.3706
2023-05-10T05:41:16.100Z,81.4312
2023-05-10T05:42:24.014Z,81.4294
2023-05-10T05:43:32.016Z,81.3610
2023-05-10T05:44:40.127Z,81.3093
2023-05-10T05:45:48.309Z,81.4135
2023-05-10T05:46:56.631Z,81.4454
2023-05-10T05:48:04.499Z,81.4657
2023-05-10T05:49:12.449Z,81.3508
2023-05-10T05:50:20.556Z,81.2638
2023-05-10T05:51:28.595Z,81.2135
2023-05-10T05:52:36.643Z,81.1721
2023-05-10T05:53:44.740Z,81.1759
2023-05-10T05:54:52.754Z,81.1697
2023-05-10T05:56:00.854Z,81.2346
2023-05-10T05:57:08.739Z,81.1612
2023-05-10T05:58:16.825Z,81.1138
2023-05-10T05:59:24.904Z,81.2488
2023-05-10T06:00:33.149Z,81.3488
2023-05-10T06:01:41.168Z,81.2900
2023-05-10T06:02:49.326Z,81.2488
2023-05-10T06:03:57.323Z,81.1829
2023-05-10T06:05:05.339Z,81.1716
2023-05-10T06:06:13.385Z,81.1904
2023-05-10T06:07:21.422Z,81.2206
2023-05-10T06:08:29.600Z,81.0989
2023-05-10T06:09:37.524Z,80.9869
2023-05-10T06:10:45.589Z,81.0574
2023-05-10T06:11:53.530Z,81.0880
2023-05-10T06:13:01.594Z,81.0678
2023-05-10T06:14:09.683Z,81.1032
2023-05-10T06:15:18.066Z,81.1216
2023-05-10T06:16:26.050Z,81.1622
2023-05-10T06:17:34.006Z,81.1340
2023-05-10T06:18:42.002Z,80.9332
2023-05-10T06:19:50.128Z,80.8347
2023-05-10T06:20:58.204Z,80.7109
2023-05-10T06:22:06.224Z,80.6113
2023-05-10T06:23:14.459Z,80.4689
2023-05-10T06:24:22.348Z,80.3776
2023-05-10T06:25:30.358Z,80.3772
2023-05-10T06:26:38.297Z,80.3317
2023-05-10T06:27:49.766Z,80.2446
2023-05-10T06:28:59.456Z,80.2078
2023-05-10T06:30:13.071Z,80.0725
2023-05-10T06:31:20.387Z,80.0292
2023-05-10T06:32:28.518Z,80.0997
2023-05-10T06:33:36.532Z,80.1230
2023-05-10T06:34:44.687Z,80.0039
2023-05-10T06:35:52.662Z,79.8555
2023-05-10T06:37:00.852Z,79.7622
2023-05-10T06:38:08.769Z,79.7677
2023-05-10T06:39:16.699Z,79.8294
2023-05-10T06:40:24.933Z,79.9203
2023-05-10T06:41:32.785Z,79.9089
2023-05-10T06:42:41.184Z,79.9580
2023-05-10T06:43:49.084Z,80.1299
2023-05-10T06:44:57.323Z,80.1583
2023-05-10T06:46:05.242Z,80.0460
2023-05-10T06:47:13.218Z,79.8102
2023-05-10T06:48:21.308Z,79.6355
2023-05-10T06:49:29.365Z,79.6889
2023-05-10T06:50:37.407Z,79.7502
2023-05-10T06:51:45.455Z,79.8712
2023-05-10T06:52:53.530Z,79.9151
2023-05-10T06:54:01.460Z,79.9383
2023-05-10T06:55:09.513Z,79.9852
2023-05-10T06:56:17.602Z,79.9553
2023-05-10T06:57:31.794Z,79.9268
2023-05-10T06:58:38.692Z,79.7607
2023-05-10T06:59:46.752Z,79.7545
2023-05-10T07:00:54.831Z,79.6144
2023-05-10T07:02:02.899Z,79.5584
2023-05-10T07:03:11.038Z,79.5614
2023-05-10T07:04:19.223Z,79.5608
2023-05-10T07:05:27.053Z,79.4488
2023-05-10T07:06:35.169Z,79.3689
2023-05-10T07:07:43.072Z,79.3686
2023-05-10T07:08:51.091Z,79.3765
2023-05-10T07:09:59.128Z,79.3154
2023-05-10T07:11:07.327Z,79.1240
2023-05-10T07:12:16.046Z,79.0419
2023-05-10T07:13:23.651Z,79.0337
2023-05-10T07:14:31.511Z,78.8578
2023-05-10T07:15:39.580Z,78.5616
2023-05-10T07:16:47.654Z,78.2266
2023-05-10T07:17:55.711Z,78.1334
2023-05-10T07:19:03.792Z,78.1505
2023-05-10T07:20:11.954Z,78.2027
2023-05-10T07:21:20.009Z,78.2565
2023-05-10T07:22:27.809Z,78.3876
2023-05-10T07:23:35.894Z,78.4576
2023-05-10T07:24:43.901Z,78.3869
2023-05-10T07:25:52.104Z,78.3102
2023-05-10T07:27:00.261Z,78.2255
2023-05-10T07:28:08.197Z,78.3897
2023-05-10T07:29:16.411Z,78.5440
2023-05-10T07:30:24.413Z,78.6341
2023-05-10T07:31:32.429Z,78.5842
2023-05-10T07:32:40.596Z,78.3841
2023-05-10T07:33:48.538Z,78.1744
2023-05-10T07:34:56.628Z,78.1957
2023-05-10T07:36:04.626Z,78.2938
2023-05-10T07:37:12.583Z,78.4220
2023-05-10T07:38:20.633Z,78.5005
2023-05-10T07:39:28.690Z,78.3707
2023-05-10T07:40:36.927Z,78.3013
2023-05-10T07:41:45.199Z,78.2520
2023-05-10T07:42:53.038Z,78.2150
2023-05-10T07:44:01.063Z,78.3381
2023-05-10T07:45:09.247Z,78.4934
2023-05-10T07:46:17.510Z,78.5521
2023-05-10T07:47:25.330Z,78.5526
2023-05-10T07:48:33.368Z,78.3652
2023-05-10T07:49:41.367Z,78.4038
2023-05-10T07:50:49.429Z,78.4418
2023-05-10T07:51:57.342Z,78.4200
2023-05-10T07:53:05.476Z,78.3570
2023-05-10T07:54:13.469Z,78.2858
2023-05-10T07:55:21.664Z,78.2419
2023-05-10T07:56:29.778Z,78.1528
2023-05-10T07:57:37.876Z,78.0616
2023-05-10T07:58:45.891Z,77.9225
2023-05-10T07:59:53.938Z,77.7583
2023-05-10T08:01:02.075Z,77.6771
2023-05-10T08:02:10.035Z,77.6056
2023-05-10T08:03:18.208Z,77.5720
2023-05-10T08:04:26.238Z,77.4262
2023-05-10T08:05:35.807Z,77.3466
2023-05-10T08:06:47.140Z,77.1265
2023-05-10T08:07:55.056Z,77.0941
2023-05-10T08:09:03.153Z,77.2345
2023-05-10T08:10:11.283Z,77.3996
2023-05-10T08:11:19.372Z,77.1863
2023-05-10T08:12:27.406Z,76.9730
2023-05-10T08:13:35.561Z,76.9199
2023-05-10T08:14:43.602Z,76.7000
2023-05-10T08:15:51.823Z,76.6359
2023-05-10T08:16:59.807Z,76.3337
2023-05-10T08:18:07.873Z,76.3135
2023-05-10T08:19:15.813Z,76.3981
2023-05-10T08:20:23.819Z,76.6223
2023-05-10T08:21:31.848Z,76.7144
2023-05-10T08:22:39.792Z,76.5098
2023-05-10T08:23:47.900Z,76.3877
2023-05-10T08:24:56.268Z,76.4384
2023-05-10T08:26:04.131Z,76.5846
2023-05-10T08:27:12.222Z,76.6879
2023-05-10T08:28:20.261Z,76.5748
2023-05-10T08:29:30.440Z,76.0848
2023-05-10T08:30:41.449Z,75.7994
2023-05-10T08:31:49.343Z,75.8491
2023-05-10T08:32:57.352Z,75.8234
2023-05-10T08:34:05.385Z,75.7694
2023-05-10T08:35:13.337Z,75.4434
2023-05-10T08:36:21.359Z,75.3424
2023-05-10T08:37:29.400Z,75.3407
2023-05-10T08:38:37.643Z,75.2198
2023-05-10T08:39:45.736Z,75.1444
2023-05-10T08:40:53.738Z,75.2797
2023-05-10T08:42:01.784Z,75.3270
2023-05-10T08:43:09.849Z,75.3712
2023-05-10T08:44:17.881Z,75.0974
2023-05-10T08:45:26.009Z,75.1332
2023-05-10T08:46:34.033Z,75.0506
2023-05-10T08:47:42.069Z,74.9425
2023-05-10T08:48:50.173Z,75.0079
2023-05-10T08:49:58.078Z,75.0337
2023-05-10T08:51:06.095Z,74.7351
2023-05-10T08:52:14.141Z,74.5291
2023-05-10T08:53:22.378Z,74.3615
2023-05-10T08:54:30.417Z,74.2199
2023-05-10T08:55:38.451Z,73.8788
2023-05-10T08:56:49.199Z,73.6238
2023-05-10T08:57:59.475Z,73.6196
2023-05-10T08:59:07.578Z,73.5260
2023-05-10T09:00:15.703Z,73.2993
2023-05-10T09:01:23.710Z,73.1367
2023-05-10T09:02:31.774Z,73.2405
2023-05-10T09:03:39.828Z,73.0444
2023-05-10T09:04:47.902Z,72.8905
2023-05-10T09:05:55.809Z,72.9512
2023-05-10T09:07:03.829Z,73.0665
2023-05-10T09:08:12.150Z,72.9699
2023-05-10T09:09:20.170Z,72.8986
2023-05-10T09:10:28.224Z,73.0135
2023-05-10T09:11:36.194Z,72.9788
2023-05-10T09:12:44.260Z,73.3881
2023-05-10T09:13:52.301Z,73.3480
2023-05-10T09:15:00.584Z,73.1858
2023-05-10T09:16:20.342Z,73.2970
2023-05-10T09:17:21.299Z,73.4156
2023-05-10T09:18:29.322Z,73.6749
2023-05-10T09:19:37.333Z,73.5512
2023-05-10T09:20:45.623Z,73.2466
2023-05-10T09:21:53.593Z,73.3575
2023-05-10T09:23:01.634Z,73.7857
2023-05-10T09:24:09.722Z,73.9297
2023-05-10T09:25:18.121Z,74.2194
2023-05-10T09:26:25.861Z,74.4746
2023-05-10T09:27:33.887Z,74.5463
2023-05-10T09:28:41.931Z,74.5194
2023-05-10T09:29:50.058Z,74.5080
2023-05-10T09:30:58.124Z,74.8809
2023-05-10T09:32:05.956Z,75.1752
2023-05-10T09:33:14.062Z,75.2158
2023-05-10T09:34:22.130Z,75.1472
2023-05-10T09:35:30.342Z,75.1718
2023-05-10T09:36:38.492Z,75.1707
2023-05-10T09:37:46.402Z,75.1377
2023-05-10T09:38:54.493Z,75.1814
2023-05-10T09:40:02.482Z,75.2008
2023-05-10T09:41:10.694Z,75.1108
2023-05-10T09:42:18.633Z,75.3245
2023-05-10T09:43:26.672Z,75.5303
2023-05-10T09:44:34.748Z,75.5105
2023-05-10T09:45:42.799Z,75.6370
2023-05-10T09:46:50.739Z,75.8409
2023-05-10T09:47:58.790Z,76.0017
2023-05-10T09:49:06.787Z,75.7922
2023-05-10T09:50:14.983Z,75.7062
2023-05-10T09:51:23.130Z,75.7133
2023-05-10T09:52:31.086Z,75.6842
2023-05-10T09:53:39.160Z,75.7882
2023-05-10T09:54:47.212Z,75.6722
2023-05-10T09:55:55.316Z,75.6470
2023-05-10T09:57:03.318Z,75.7894
2023-05-10T09:58:11.659Z,75.6664
2023-05-10T09:59:19.423Z,75.4470
2023-05-10T10:00:27.613Z,74.8543
2023-05-10T10:01:35.500Z,74.3417
2023-05-10T10:02:43.513Z,74.0646
2023-05-10T10:03:51.522Z,74.1102
2023-05-10T10:04:59.895Z,74.4344
2023-05-10T10:06:15.901Z,74.7887
2023-05-10T10:07:20.678Z,74.9787
2023-05-10T10:08:28.736Z,75.1425
2023-05-10T10:09:36.770Z,75.2280
2023-05-10T10:10:46.017Z,75.1518
2023-05-10T10:11:53.001Z,74.8756
2023-05-10T10:13:00.963Z,74.6992
2023-05-10T10:14:09.059Z,74.5667
2023-05-10T10:15:17.105Z,74.5429
2023-05-10T10:16:25.021Z,74.3781
2023-05-10T10:17:33.097Z,73.9427
2023-05-10T10:18:41.308Z,73.9583
2023-05-10T10:19:49.310Z,73.9131
2023-05-10T10:20:57.421Z,73.7135
2023-05-10T10:22:05.539Z,73.5359
2023-05-10T10:23:15.170Z,73.6937
2023-05-10T10:24:26.395Z,73.6646
2023-05-10T10:25:34.602Z,73.2434
2023-05-10T10:26:42.515Z,72.6067
2023-05-10T10:27:50.596Z,72.4232
2023-05-10T10:28:58.501Z,71.9394
2023-05-10T10:30:06.546Z,71.4050
2023-05-10T10:31:14.713Z,71.5835
2023-05-10T10:32:22.800Z,71.6742
2023-05-10T10:33:30.996Z,71.8942
2023-05-10T10:34:38.905Z,71.8873
2023-05-10T10:35:46.982Z,71.8976
2023-05-10T10:36:55.006Z,71.4117
2023-05-10T10:38:03.141Z,71.6937
2023-05-10T10:39:11.146Z,71.9611
2023-05-10T10:40:19.275Z,72.0669
2023-05-10T10:41:27.222Z,71.7818
2023-05-10T10:42:35.351Z,71.1253
2023-05-10T10:43:43.244Z,70.8231
2023-05-10T10:44:51.278Z,70.4445
2023-05-10T10:45:59.362Z,70.4697
2023-05-10T10:47:07.728Z,70.5317
2023-05-10T10:48:15.636Z,69.4639
2023-05-10T10:49:23.628Z,69.2899
2023-05-10T10:50:31.809Z,68.4537
2023-05-10T10:51:39.915Z,67.6884
2023-05-10T10:52:48.002Z,67.3049
2023-05-10T10:53:55.851Z,67.0375
2023-05-10T10:55:04.118Z,67.2817
2023-05-10T10:56:12.031Z,67.3306
2023-05-10T10:57:20.077Z,67.6579
2023-05-10T10:58:27.954Z,67.6197
2023-05-10T10:59:36.018Z,67.8026
2023-05-10T11:00:44.114Z,67.7249
2023-05-10T11:01:52.395Z,67.5246
2023-05-10T11:03:00.378Z,67.3678
2023-05-10T11:04:08.379Z,67.4342
2023-05-10T11:05:16.575Z,67.5462
2023-05-10T11:06:24.680Z,67.9072
2023-05-10T11:07:32.605Z,68.2228
2023-05-10T11:08:40.595Z,68.1631
2023-05-10T11:09:48.661Z,68.7054
2023-05-10T11:10:56.910Z,69.0673
2023-05-10T11:12:04.844Z,69.3946
2023-05-10T11:13:12.683Z,69.7251
2023-05-10T11:14:20.733Z,70.0290
2023-05-10T11:15:28.775Z,70.0126
2023-05-10T11:16:37.011Z,70.2636
2023-05-10T11:17:45.259Z,70.6122
2023-05-10T11:18:53.091Z,70.8413
2023-05-10T11:20:01.114Z,71.1322
2023-05-10T11:21:09.341Z,70.9498
2023-05-10T11:22:17.194Z,71.0252
2023-05-10T11:23:25.367Z,71.4583
2023-05-10T11:24:33.452Z,71.5280
2023-05-10T11:25:41.644Z,71.4902
2023-05-10T11:26:49.476Z,71.6540
2023-05-10T11:27:57.448Z,71.4163
2023-05-10T11:29:05.520Z,71.3972
2023-05-10T11:30:13.647Z,71.0794
2023-05-10T11:31:21.829Z,70.4255
2023-05-10T11:32:29.819Z,70.3741
2023-05-10T11:33:37.925Z,70.5388
2023-05-10T11:34:45.849Z,70.8086
2023-05-10T11:35:53.968Z,71.3181
2023-05-10T11:37:01.984Z,71.6184
2023-05-10T11:38:10.075Z,71.6745
2023-05-10T11:39:18.054Z,71.2811
2023-05-10T11:40:26.137Z,71.5118
2023-05-10T11:41:34.394Z,71.0918
2023-05-10T11:42:42.116Z,70.7000
2023-05-10T11:43:50.136Z,70.6739
2023-05-10T11:44:58.248Z,70.5800
2023-05-10T11:46:06.633Z,70.5026
2023-05-10T11:47:15.309Z,70.2039
2023-05-10T11:48:22.589Z,70.0570
2023-05-10T11:49:30.855Z,69.7216
2023-05-10T11:50:38.631Z,69.8640
2023-05-10T11:51:46.678Z,69.5602
2023-05-10T11:52:54.801Z,69.6962
2023-05-10T11:54:02.867Z,69.8096
2023-05-10T11:55:10.859Z,70.1261
2023-05-10T11:56:18.939Z,70.2191
2023-05-10T11:57:27.020Z,70.3976
2023-05-10T11:58:34.905Z,69.7748
2023-05-10T11:59:43.345Z,69.2272
2023-05-10T12:00:51.020Z,69.0825
2023-05-10T12:01:59.177Z,68.8247
2023-05-10T12:03:07.374Z,68.4922
2023-05-10T12:04:15.445Z,67.7967
2023-05-10T12:05:23.366Z,67.8366
2023-05-10T12:06:31.468Z,67.3050
2023-05-10T12:07:39.547Z,66.7981
2023-05-10T12:08:47.520Z,66.8423
2023-05-10T12:09:55.570Z,66.3757
2023-05-10T12:11:03.646Z,66.5395
2023-05-10T12:12:11.706Z,66.4738
2023-05-10T12:13:19.649Z,66.4815
2023-05-10T12:14:27.718Z,66.2696
2023-05-10T12:15:35.755Z,65.7780
2023-05-10T12:16:43.987Z,65.9395
2023-05-10T12:17:52.075Z,65.9049
2023-05-10T12:19:00.077Z,65.9033
2023-05-10T12:20:08.088Z,66.0754
2023-05-10T12:21:16.194Z,66.0284
2023-05-10T12:22:24.224Z,65.7250
2023-05-10T12:23:32.334Z,65.4136
2023-05-10T12:24:40.384Z,65.6151
2023-05-10T12:25:48.417Z,65.8258
2023-05-10T12:26:56.425Z,65.3791
2023-05-10T12:28:04.423Z,64.8536
2023-05-10T12:29:12.428Z,64.3955
2023-05-10T12:30:20.482Z,63.9746
2023-05-10T12:31:28.836Z,64.2245
2023-05-10T12:32:36.750Z,64.5362
2023-05-10T12:33:44.798Z,64.4923
2023-05-10T12:34:52.860Z,64.9808
2023-05-10T12:36:00.894Z,65.8967
2023-05-10T12:37:08.905Z,66.2041
2023-05-10T12:38:17.077Z,66.7466
2023-05-10T12:39:25.046Z,66.7968
2023-05-10T12:40:33.221Z,67.2656
2023-05-10T12:41:43.518Z,67.5437
2023-05-10T12:42:53.999Z,67.9461
2023-05-10T12:44:02.025Z,68.1040
2023-05-10T12:45:10.069Z,67.3781
2023-05-10T12:46:18.315Z,67.2513
2023-05-10T12:47:26.442Z,67.2764
2023-05-10T12:48:34.383Z,67.4822
2023-05-10T12:49:42.475Z,67.8983
2023-05-10T12:50:50.453Z,67.9613
2023-05-10T12:51:58.517Z,68.1741
2023-05-10T12:53:06.630Z,68.2216
2023-05-10T12:54:14.818Z,68.4418
2023-05-10T12:55:22.704Z,68.6913
2023-05-10T12:56:30.854Z,69.0671
2023-05-10T12:57:38.677Z,69.0218
2023-05-10T12:58:46.760Z,69.0585
2023-05-10T12:59:54.804Z,68.9416
2023-05-10T13:01:03.172Z,68.9961
2023-05-10T13:02:11.060Z,69.0380
2023-05-10T13:03:19.285Z,69.0630
2023-05-10T13:04:27.201Z,69.2880
2023-05-10T13:05:35.285Z,69.3198
2023-05-10T13:06:43.348Z,69.1019
2023-05-10T13:07:51.472Z,69.4847
2023-05-10T13:08:59.509Z,69.9992
2023-05-10T13:10:07.586Z,69.7318
2023-05-10T13:11:15.694Z,69.3707
2023-05-10T13:12:23.537Z,68.9903
2023-05-10T13:13:31.606Z,68.3847
2023-05-10T13:14:39.623Z,68.0131
2023-05-10T13:15:47.788Z,68.1198
2023-05-10T13:16:55.973Z,68.5922
2023-05-10T13:18:04.120Z,68.9080
2023-05-10T13:19:12.256Z,69.3084
2023-05-10T13:20:20.014Z,69.1840
2023-05-10T13:21:28.079Z,69.0158
2023-05-10T13:22:40.197Z,69.0310
2023-05-10T13:23:49.098Z,68.8521
2023-05-10T13:24:57.134Z,68.0795
2023-05-10T13:26:05.088Z,67.7633
2023-05-10T13:27:13.108Z,67.8659
2023-05-10T13:28:21.176Z,67.8865
2023-05-10T13:29:29.421Z,67.3781
2023-05-10T13:30:37.418Z,66.5298
2023-05-10T13:31:45.540Z,65.6963
2023-05-10T13:32:53.575Z,64.6799
2023-05-10T13:34:01.716Z,63.8096
2023-05-10T13:35:09.548Z,64.1911
2023-05-10T13:36:17.823Z,64.3529
2023-05-10T13:37:25.808Z,64.1700
2023-05-10T13:38:33.832Z,64.6194
2023-05-10T13:39:42.057Z,64.5649
2023-05-10T13:40:49.808Z,64.6887
2023-05-10T13:41:57.852Z,65.2781
2023-05-10T13:43:05.954Z,66.1807
2023-05-10T13:44:14.263Z,66.8013